createdAt,value
2017-08-19T09:08:09.030Z,75
2017-08-19T09:08:49.679Z,75
2017-08-19T09:09:30.592Z,90
2017-08-19T09:10:11.424Z,100
2017-08-19T09:10:52.247Z,100
2017-08-19T09:11:32.882Z,100
2017-08-19T09:12:13.674Z,100
2017-08-19T09:12:54.502Z,100
2017-08-19T09:13:35.849Z,105
2017-08-19T09:14:16.460Z,110
2017-08-19T09:14:57.419Z,115
2017-08-19T09:15:38.254Z,125
2017-08-19T09:16:19.177Z,145
2017-08-19T09:16:59.869Z,155
2017-08-19T09:17:41.132Z,165
2017-08-19T09:18:21.894Z,170
2017-08-19T09:19:02.721Z,170
2017-08-19T09:19:43.562Z,170
2017-08-19T09:20:24.397Z,170
2017-08-19T09:21:05.124Z,170
2017-08-19T09:21:45.861Z,175
2017-08-19T09:22:27.160Z,180
2017-08-19T09:23:07.906Z,180
2017-08-19T09:23:48.512Z,175
2017-08-19T09:24:29.473Z,180
2017-08-19T09:25:10.499Z,195
2017-08-19T09:25:51.502Z,205
2017-08-19T09:26:32.439Z,200
2017-08-19T09:27:13.010Z,190
2017-08-19T09:27:53.933Z,170
2017-08-19T09:28:34.744Z,160
2017-08-19T09:29:15.760Z,150
2017-08-19T09:29:56.405Z,150
2017-08-19T09:30:37.497Z,160
2017-08-19T09:31:18.415Z,170
2017-08-19T09:31:59.403Z,175
2017-08-19T09:32:40.243Z,170
2017-08-19T09:33:21.471Z,175
2017-08-19T09:34:02.161Z,180
2017-08-19T09:34:43.290Z,175
2017-08-19T09:35:24.116Z,170
2017-08-19T09:36:05.093Z,165
2017-08-19T09:36:45.955Z,170
2017-08-19T09:37:27.154Z,175
2017-08-19T09:38:08.304Z,185
2017-08-19T09:38:48.956Z,190
2017-08-19T09:39:30.049Z,185
2017-08-19T09:40:10.895Z,175
2017-08-19T09:40:51.690Z,160
2017-08-19T09:41:32.937Z,165
2017-08-19T09:42:14.159Z,170
2017-08-19T09:42:55.004Z,185
2017-08-19T09:43:35.987Z,190
2017-08-19T09:44:17.079Z,200
2017-08-19T09:44:58.170Z,195
2017-08-19T09:45:39.075Z,190
2017-08-19T09:46:19.781Z,190
2017-08-19T09:47:00.669Z,200
2017-08-19T09:47:41.601Z,200
2017-08-19T09:48:23.339Z,200
2017-08-19T09:49:04.233Z,185
2017-08-19T09:49:46.014Z,190
2017-08-19T09:50:27.188Z,195
2017-08-19T09:51:08.109Z,205
2017-08-19T09:51:48.826Z,215
2017-08-19T09:52:29.646Z,240
2017-08-19T09:53:10.465Z,270
2017-08-19T09:53:51.292Z,305
2017-08-19T09:54:32.097Z,320
2017-08-19T09:55:12.863Z,335
2017-08-19T09:55:53.611Z,335
2017-08-19T09:56:34.543Z,320
2017-08-19T09:57:15.109Z,320
2017-08-19T09:57:55.867Z,325
2017-08-19T09:58:37.199Z,355
2017-08-19T09:59:18.480Z,375
2017-08-19T09:59:59.928Z,395
2017-08-19T10:00:41.109Z,395
2017-08-19T10:01:22.005Z,415
2017-08-19T10:02:04.700Z,430
2017-08-19T10:02:45.893Z,420
2017-08-19T10:03:26.723Z,405
2017-08-19T10:04:07.846Z,390
2017-08-19T10:04:49.131Z,385
2017-08-19T10:05:29.997Z,390
2017-08-19T10:06:10.748Z,380
2017-08-19T10:06:51.582Z,375
2017-08-19T10:07:32.800Z,375
2017-08-19T10:08:13.778Z,385
2017-08-19T10:08:54.451Z,390
2017-08-19T10:09:35.448Z,395
2017-08-19T10:10:16.449Z,395
2017-08-19T10:10:57.087Z,395
2017-08-19T10:11:37.908Z,395
2017-08-19T10:12:18.985Z,390
2017-08-19T10:12:59.632Z,380
2017-08-19T10:13:40.322Z,380
2017-08-19T10:14:21.220Z,365
2017-08-19T10:15:01.969Z,365
2017-08-19T10:15:42.784Z,375
2017-08-19T10:16:23.404Z,370
2017-08-19T10:17:04.531Z,375
2017-08-19T10:17:45.347Z,380
2017-08-19T10:18:26.333Z,385
2017-08-19T10:19:07.137Z,390
2017-08-19T10:19:47.977Z,385
2017-08-19T10:20:28.944Z,380
2017-08-19T10:21:09.581Z,380
2017-08-19T10:21:50.337Z,375
2017-08-19T10:22:31.148Z,370
2017-08-19T10:23:12.088Z,370
2017-08-19T10:23:52.898Z,365
2017-08-19T10:24:33.602Z,360
2017-08-19T10:25:14.362Z,360
2017-08-19T10:25:55.462Z,355
2017-08-19T10:26:36.284Z,355
2017-08-19T10:27:16.851Z,350
2017-08-19T10:27:57.777Z,350
2017-08-19T10:28:38.388Z,330
2017-08-19T10:29:19.199Z,320
2017-08-19T10:30:00.020Z,325
2017-08-19T10:30:41.062Z,345
2017-08-19T10:31:21.918Z,360
2017-08-19T10:32:02.715Z,365
2017-08-19T10:32:43.770Z,365
2017-08-19T10:33:24.507Z,375
2017-08-19T10:34:05.108Z,400
2017-08-19T10:34:46.088Z,425
2017-08-19T10:35:26.772Z,445
2017-08-19T10:36:07.754Z,445
2017-08-19T10:36:48.935Z,450
2017-08-19T10:37:30.022Z,460
2017-08-19T10:38:10.906Z,475
2017-08-19T10:38:51.698Z,480
2017-08-19T10:39:33.121Z,485
2017-08-19T10:40:14.210Z,475
2017-08-19T10:40:55.178Z,455
2017-08-19T10:41:35.960Z,445
2017-08-19T10:42:16.670Z,415
2017-08-19T10:42:57.688Z,385
2017-08-19T10:43:38.483Z,350
2017-08-19T10:44:19.027Z,335
2017-08-19T10:44:59.956Z,340
2017-08-19T10:45:41.007Z,335
2017-08-19T10:46:21.983Z,315
2017-08-19T10:47:02.683Z,100
2017-08-19T10:47:43.298Z,100
2017-08-19T10:48:24.083Z,100
2017-08-19T10:49:05.085Z,355
2017-08-19T10:49:45.954Z,375
2017-08-19T10:50:26.871Z,385
2017-08-19T10:51:07.784Z,400
2017-08-19T10:51:48.745Z,410
2017-08-19T10:52:29.711Z,420
2017-08-19T10:53:10.877Z,435
2017-08-19T10:53:52.309Z,445
2017-08-19T10:54:33.161Z,460
2017-08-19T10:55:13.825Z,470
2017-08-19T10:55:54.594Z,475
2017-08-19T10:56:35.429Z,475
2017-08-19T10:57:16.083Z,475
2017-08-19T10:57:56.739Z,475
2017-08-19T10:58:37.784Z,460
2017-08-19T10:59:18.581Z,455
2017-08-19T10:59:59.382Z,450
2017-08-19T11:00:40.265Z,440
2017-08-19T11:01:20.989Z,435
2017-08-19T11:02:01.958Z,390
2017-08-19T11:02:42.894Z,400
2017-08-19T11:03:23.659Z,385
2017-08-19T11:04:04.620Z,365
2017-08-19T11:04:45.505Z,370
2017-08-19T11:05:26.395Z,385
2017-08-19T11:06:07.189Z,395
2017-08-19T11:06:48.022Z,410
2017-08-19T11:07:28.732Z,430
2017-08-19T11:08:09.489Z,445
2017-08-19T11:08:50.261Z,450
2017-08-19T11:09:30.965Z,460
2017-08-19T11:10:11.688Z,480
2017-08-19T11:10:52.609Z,510
2017-08-19T11:11:33.489Z,515
2017-08-19T11:12:14.370Z,520
2017-08-19T11:12:55.060Z,525
2017-08-19T11:13:35.980Z,535
2017-08-19T11:14:16.668Z,540
2017-08-19T11:14:57.455Z,540
2017-08-19T11:15:38.174Z,545
2017-08-19T11:16:19.022Z,545
2017-08-19T11:16:59.916Z,545
2017-08-19T11:17:40.712Z,550
2017-08-19T11:18:21.471Z,545
2017-08-19T11:19:02.401Z,550
2017-08-19T11:19:43.078Z,540
2017-08-19T11:20:24.043Z,545
2017-08-19T11:21:04.938Z,540
2017-08-19T11:21:45.773Z,540
2017-08-19T11:22:26.680Z,560
2017-08-19T11:23:07.259Z,575
2017-08-19T11:23:48.185Z,575
2017-08-19T11:24:28.840Z,610
2017-08-19T11:25:09.745Z,575
2017-08-19T11:25:50.625Z,540
2017-08-19T11:26:32.066Z,515
2017-08-19T11:27:12.921Z,510
2017-08-19T11:27:53.934Z,510
2017-08-19T11:28:34.552Z,490
2017-08-19T11:29:15.483Z,470
2017-08-19T11:29:56.462Z,475
2017-08-19T11:30:37.533Z,520
2017-08-19T11:31:18.183Z,510
2017-08-19T11:31:58.932Z,525
2017-08-19T11:32:39.624Z,535
2017-08-19T11:33:20.384Z,575
2017-08-19T11:34:01.278Z,600
2017-08-19T11:34:42.019Z,650
2017-08-19T11:35:23.023Z,625
2017-08-19T11:36:03.665Z,665
2017-08-19T11:36:44.440Z,655
2017-08-19T11:37:26.069Z,615
2017-08-19T11:38:06.958Z,595
2017-08-19T11:38:48.015Z,575
2017-08-19T11:39:28.794Z,540
2017-08-19T11:40:09.439Z,520
2017-08-19T11:40:50.594Z,500
2017-08-19T11:41:31.431Z,500
2017-08-19T11:42:12.405Z,495
2017-08-19T11:42:53.203Z,480
2017-08-19T11:43:33.910Z,475
2017-08-19T11:44:14.604Z,445
2017-08-19T11:44:55.856Z,460
2017-08-19T11:45:36.623Z,510
2017-08-19T11:46:17.402Z,555
2017-08-19T11:46:58.133Z,585
2017-08-19T11:47:39.128Z,610
2017-08-19T11:48:20.002Z,610
2017-08-19T11:49:01.223Z,600
2017-08-19T11:49:42.187Z,520
2017-08-19T11:50:22.901Z,545
2017-08-19T11:51:03.626Z,525
2017-08-19T11:51:44.270Z,520
2017-08-19T11:52:24.989Z,510
2017-08-19T11:53:06.037Z,480
2017-08-19T11:53:46.732Z,430
2017-08-19T11:54:27.451Z,385
2017-08-19T11:55:08.087Z,345
2017-08-19T11:55:49.224Z,315
2017-08-19T11:56:30.246Z,285
2017-08-19T11:57:11.223Z,265
2017-08-19T11:57:51.959Z,245
2017-08-19T11:58:32.816Z,235
2017-08-19T11:59:13.744Z,220
2017-08-19T11:59:55.095Z,210
2017-08-19T12:00:36.868Z,200
2017-08-19T12:01:18.540Z,195
2017-08-19T12:02:00.218Z,190
2017-08-19T12:02:41.822Z,190
2017-08-19T12:03:23.455Z,180
2017-08-19T12:04:04.857Z,175
2017-08-19T12:04:47.373Z,170
2017-08-19T12:05:28.858Z,165
2017-08-19T12:06:10.633Z,170
2017-08-19T12:06:52.289Z,170
2017-08-19T12:07:33.868Z,170
2017-08-19T12:08:15.244Z,170
2017-08-19T12:08:56.756Z,165
2017-08-19T12:09:38.331Z,165
2017-08-19T12:10:19.978Z,175
2017-08-19T12:11:02.630Z,190
2017-08-19T12:11:44.061Z,205
2017-08-19T12:12:25.511Z,215
2017-08-19T12:13:07.020Z,220
2017-08-19T12:13:49.893Z,225
2017-08-19T12:14:31.281Z,230
2017-08-19T12:15:13.038Z,245
2017-08-19T12:15:54.476Z,265
2017-08-19T12:16:36.641Z,285
2017-08-19T12:17:18.056Z,290
2017-08-19T12:17:59.608Z,285
2017-08-19T12:18:42.098Z,255
2017-08-19T12:19:23.168Z,235
2017-08-19T12:20:04.677Z,230
2017-08-19T12:20:46.162Z,230
2017-08-19T12:21:27.679Z,220
2017-08-19T12:22:08.858Z,210
2017-08-19T12:22:50.338Z,210
2017-08-19T12:23:31.271Z,200
2017-08-19T12:24:12.658Z,195
2017-08-19T12:24:54.661Z,200
2017-08-19T12:25:37.429Z,210
2017-08-19T12:26:18.880Z,220
2017-08-19T12:27:00.159Z,225
2017-08-19T12:27:41.523Z,220
2017-08-19T12:28:22.707Z,215
2017-08-19T12:29:05.037Z,210
2017-08-19T12:29:46.557Z,215
2017-08-19T12:30:27.907Z,215
2017-08-19T12:31:12.168Z,210
2017-08-19T12:31:53.721Z,205
2017-08-19T12:32:36.034Z,210
2017-08-19T12:33:17.815Z,205
2017-08-19T12:33:59.001Z,210
2017-08-19T12:34:40.756Z,210
2017-08-19T12:35:22.149Z,200
2017-08-19T12:36:03.484Z,195
2017-08-19T12:36:45.190Z,200
2017-08-19T12:37:26.935Z,195
2017-08-19T12:38:08.297Z,185
2017-08-19T12:38:50.381Z,180
2017-08-19T12:39:32.752Z,180
2017-08-19T12:40:15.362Z,180
2017-08-19T12:40:56.861Z,170
2017-08-19T12:41:37.774Z,165
2017-08-19T12:42:19.680Z,160
2017-08-19T12:43:01.388Z,155
2017-08-19T12:43:43.092Z,150
2017-08-19T12:44:24.597Z,150
2017-08-19T12:45:05.960Z,145
2017-08-19T12:45:47.227Z,145
2017-08-19T12:46:28.717Z,145
2017-08-19T12:47:11.067Z,145
2017-08-19T12:47:53.638Z,145
2017-08-19T12:48:35.148Z,145
2017-08-19T12:49:17.491Z,150
2017-08-19T12:49:58.874Z,155
2017-08-19T12:50:40.171Z,165
2017-08-19T12:51:22.121Z,170
2017-08-19T12:52:03.403Z,170
2017-08-19T12:52:44.586Z,170
2017-08-19T12:53:26.228Z,170
2017-08-19T12:54:07.767Z,170
2017-08-19T12:54:49.298Z,180
2017-08-19T12:55:30.685Z,175
2017-08-19T12:56:11.847Z,180
2017-08-19T12:56:54.374Z,180
2017-08-19T12:57:35.790Z,175
2017-08-19T12:58:17.338Z,180
2017-08-19T12:58:58.902Z,185
2017-08-19T12:59:40.331Z,195
2017-08-19T13:00:21.945Z,210
2017-08-19T13:01:03.512Z,250
2017-08-19T13:01:46.239Z,305
2017-08-19T13:02:27.691Z,375
2017-08-19T13:03:09.396Z,475
2017-08-19T13:03:50.527Z,560
2017-08-19T13:04:32.102Z,540
2017-08-19T13:05:13.212Z,410
2017-08-19T13:05:54.913Z,355
2017-08-19T13:06:36.836Z,340
2017-08-19T13:07:20.052Z,360
2017-08-19T13:08:01.999Z,380
2017-08-19T13:08:43.496Z,390
2017-08-19T13:09:24.903Z,375
2017-08-19T13:10:07.135Z,370
2017-08-19T13:10:48.685Z,370
2017-08-19T13:11:30.109Z,370
2017-08-19T13:12:11.504Z,375
2017-08-19T13:12:53.488Z,375
2017-08-19T13:13:35.140Z,375
2017-08-19T13:14:16.647Z,375
2017-08-19T13:14:58.967Z,360
2017-08-19T13:15:44.140Z,340
2017-08-19T13:16:25.344Z,315
2017-08-19T13:17:06.492Z,290
2017-08-19T13:17:47.970Z,285
2017-08-19T13:18:29.230Z,295
2017-08-19T13:19:10.499Z,310
2017-08-19T13:19:52.590Z,330
2017-08-19T13:20:33.979Z,360
2017-08-19T13:21:15.340Z,400
2017-08-19T13:21:57.665Z,435
2017-08-19T13:22:38.915Z,530
2017-08-19T13:23:20.539Z,555
2017-08-19T13:24:01.635Z,620
2017-08-19T13:24:43.072Z,705
2017-08-19T13:25:24.700Z,715
2017-08-19T13:26:05.790Z,750
2017-08-19T13:26:46.960Z,575
2017-08-19T13:27:28.809Z,390
2017-08-19T13:28:10.161Z,345
2017-08-19T13:28:51.607Z,310
2017-08-19T13:29:33.326Z,305
2017-08-19T13:30:15.322Z,295
2017-08-19T13:30:56.448Z,310
2017-08-19T13:31:37.728Z,335
2017-08-19T13:32:18.727Z,380
2017-08-19T13:33:00.153Z,480
2017-08-19T13:33:41.298Z,610
2017-08-19T13:34:22.834Z,710
2017-08-19T13:35:04.400Z,675
2017-08-19T13:35:45.889Z,715
2017-08-19T13:36:27.449Z,795
2017-08-19T13:37:08.807Z,790
2017-08-19T13:37:50.080Z,755
2017-08-19T13:38:32.535Z,665
2017-08-19T13:39:14.371Z,735
2017-08-19T13:39:55.955Z,930
2017-08-19T13:40:37.476Z,1405
2017-08-19T13:41:18.616Z,4160
2017-08-19T13:41:59.451Z,3675
2017-08-19T13:42:40.080Z,3245
2017-08-19T13:43:20.694Z,3770
2017-08-19T13:44:01.242Z,4210
2017-08-19T13:44:41.819Z,3245
2017-08-19T13:45:22.425Z,3740
2017-08-19T13:46:03.019Z,3785
2017-08-19T13:46:43.652Z,3890
2017-08-19T13:47:24.226Z,4020
2017-08-19T13:48:04.789Z,3975
2017-08-19T13:48:45.400Z,3995
2017-08-19T13:49:25.956Z,3985
2017-08-19T13:50:06.535Z,3965
2017-08-19T13:50:47.147Z,3945
2017-08-19T13:51:27.773Z,3960
2017-08-19T13:52:08.385Z,3940
2017-08-19T13:52:48.945Z,3940
2017-08-19T13:53:29.533Z,3940
2017-08-19T13:54:10.135Z,3930
2017-08-19T13:54:50.766Z,3935
2017-08-19T13:55:31.325Z,3925
2017-08-19T13:56:11.890Z,3905
2017-08-19T13:56:52.471Z,3920
2017-08-19T13:57:33.092Z,3915
2017-08-19T13:58:13.667Z,3905
2017-08-19T13:58:54.924Z,3920
2017-08-19T13:59:35.540Z,3930
2017-08-19T14:00:16.132Z,3930
2017-08-19T14:00:56.734Z,3910
2017-08-19T14:01:37.293Z,3880
2017-08-19T14:02:17.854Z,3880
2017-08-19T14:02:58.469Z,3835
2017-08-19T14:03:39.049Z,3840
2017-08-19T14:04:19.637Z,2855
2017-08-19T14:05:00.227Z,3000
2017-08-19T14:05:40.829Z,3880
2017-08-19T14:06:21.420Z,3910
2017-08-19T14:07:02.241Z,1480
2017-08-19T14:07:42.806Z,125
2017-08-19T14:08:23.365Z,260
2017-08-19T14:09:03.934Z,160
2017-08-19T14:09:44.516Z,150
2017-08-19T14:10:25.127Z,225
2017-08-19T14:11:05.812Z,155
2017-08-19T14:11:46.337Z,185
2017-08-19T14:12:26.910Z,205
2017-08-19T14:13:07.490Z,245
2017-08-19T14:13:48.101Z,310
2017-08-19T14:14:28.709Z,305
2017-08-19T14:15:09.336Z,205
2017-08-19T14:15:49.913Z,170
2017-08-19T14:16:30.511Z,180
2017-08-19T14:17:11.113Z,305
2017-08-19T14:17:51.678Z,235
2017-08-19T14:18:32.354Z,215
2017-08-19T14:19:12.944Z,135
2017-08-19T14:19:53.629Z,290
2017-08-19T14:20:34.162Z,300
2017-08-19T14:21:14.769Z,300
2017-08-19T14:21:55.373Z,260
2017-08-19T14:22:35.909Z,120
2017-08-19T14:23:16.521Z,195
2017-08-19T14:23:57.194Z,100
2017-08-19T14:24:37.834Z,125
2017-08-19T14:25:18.409Z,90
2017-08-19T14:25:58.980Z,170
2017-08-19T14:26:39.572Z,260
2017-08-19T14:27:20.278Z,220
2017-08-19T14:28:00.820Z,195
2017-08-19T14:28:41.403Z,255
2017-08-19T14:29:23.061Z,75
2017-08-19T14:30:03.616Z,255
2017-08-19T14:30:44.422Z,250
2017-08-19T14:31:25.011Z,250
2017-08-19T14:32:05.681Z,60
2017-08-19T14:32:46.460Z,70
2017-08-19T14:33:26.972Z,80
2017-08-19T14:34:07.607Z,55
2017-08-19T14:34:48.218Z,60
2017-08-19T14:35:28.859Z,60
2017-08-19T14:36:09.485Z,60
2017-08-19T14:36:50.061Z,65
2017-08-19T14:37:30.688Z,85
2017-08-19T14:38:11.376Z,75
2017-08-19T14:38:51.928Z,75
2017-08-19T14:39:32.457Z,75
2017-08-19T14:40:13.049Z,75
2017-08-19T14:40:53.643Z,70
2017-08-19T14:41:34.241Z,65
2017-08-19T14:42:14.856Z,65
2017-08-19T14:42:55.482Z,65
2017-08-19T14:43:36.254Z,65
2017-08-19T14:44:16.703Z,70
2017-08-19T14:44:57.951Z,75
2017-08-19T14:45:38.566Z,180
2017-08-19T14:46:19.121Z,250
2017-08-19T14:46:59.699Z,210
2017-08-19T14:47:40.330Z,90
2017-08-19T14:48:20.924Z,80
2017-08-19T14:49:02.205Z,75
2017-08-19T14:49:42.845Z,65
2017-08-19T14:50:23.714Z,60
2017-08-19T14:51:04.167Z,55
2017-08-19T14:51:44.774Z,50
2017-08-19T14:52:25.363Z,50
2017-08-19T14:53:05.932Z,50
2017-08-19T14:53:46.557Z,50
2017-08-19T14:54:27.153Z,50
2017-08-19T14:55:07.842Z,50
2017-08-19T14:55:48.441Z,50
2017-08-19T14:56:29.020Z,55
2017-08-19T14:57:09.646Z,55
2017-08-19T14:57:50.247Z,60
2017-08-19T14:58:30.869Z,60
2017-08-19T14:59:11.422Z,65
2017-08-19T14:59:52.001Z,70
2017-08-19T15:00:32.732Z,80
2017-08-19T15:01:13.295Z,90
2017-08-19T15:01:53.883Z,105
2017-08-19T15:02:34.975Z,270
2017-08-19T15:03:15.531Z,205
2017-08-19T15:03:56.191Z,110
2017-08-19T15:04:36.758Z,80
2017-08-19T15:05:17.313Z,80
2017-08-19T15:05:57.915Z,75
2017-08-19T15:06:38.532Z,70
2017-08-19T15:07:19.193Z,75
2017-08-19T15:07:59.930Z,75
2017-08-19T15:08:40.490Z,75
2017-08-19T15:09:21.117Z,85
2017-08-19T15:10:02.401Z,140
2017-08-19T15:10:42.565Z,120
2017-08-19T15:11:23.224Z,150
2017-08-19T15:12:04.050Z,260
2017-08-19T15:12:44.852Z,240
2017-08-19T15:13:25.591Z,85
2017-08-19T15:14:06.332Z,95
2017-08-19T15:14:47.006Z,255
2017-08-19T15:15:27.857Z,105
2017-08-19T15:17:46.383Z,75
2017-08-19T15:18:27.250Z,165
2017-08-19T15:19:08.223Z,80
2017-08-19T15:19:49.225Z,210
2017-08-19T15:20:30.067Z,50
2017-08-19T15:21:10.735Z,45
2017-08-19T15:21:51.536Z,45
2017-08-19T15:22:32.158Z,45
2017-08-19T15:23:12.721Z,50
2017-08-19T15:23:53.300Z,60
2017-08-19T15:24:33.890Z,60
2017-08-19T15:25:14.468Z,50
2017-08-19T15:25:55.116Z,225
2017-08-19T15:26:35.667Z,310
2017-08-19T15:27:16.233Z,305
2017-08-19T15:27:56.800Z,320
2017-08-19T15:28:37.459Z,315
2017-08-19T15:29:18.110Z,285
2017-08-19T15:29:59.085Z,255
2017-08-19T15:30:39.679Z,210
2017-08-19T15:31:20.296Z,185
2017-08-19T15:32:00.853Z,175
2017-08-19T15:32:41.639Z,180
2017-08-19T15:33:22.297Z,175
2017-08-19T15:34:02.909Z,160
2017-08-19T15:34:43.578Z,145
2017-08-19T15:35:24.171Z,140
2017-08-19T15:36:04.813Z,145
2017-08-19T15:36:45.552Z,145
2017-08-19T15:37:26.194Z,145
2017-08-19T15:38:06.809Z,150
2017-08-19T15:38:47.468Z,155
2017-08-19T15:39:28.078Z,165
2017-08-19T15:40:08.713Z,190
2017-08-19T15:40:49.336Z,225
2017-08-19T15:41:29.939Z,210
2017-08-19T15:42:10.647Z,205
2017-08-19T15:42:51.259Z,230
2017-08-19T15:43:31.853Z,245
2017-08-19T15:44:12.445Z,245
2017-08-19T15:44:53.067Z,240
2017-08-19T15:45:33.738Z,255
2017-08-19T15:46:14.337Z,255
2017-08-19T15:46:54.960Z,265
2017-08-19T15:47:35.589Z,290
2017-08-19T15:48:16.323Z,725
2017-08-19T15:48:56.879Z,360
2017-08-19T15:49:37.506Z,375
2017-08-19T15:50:18.134Z,430
2017-08-19T15:50:58.991Z,480
2017-08-19T15:51:39.915Z,1405
2017-08-19T15:52:20.789Z,1800
2017-08-19T15:53:01.515Z,1905
2017-08-19T15:53:42.422Z,1195
2017-08-19T15:54:23.022Z,875
2017-08-19T15:55:03.679Z,1010
2017-08-19T15:55:44.381Z,1375
2017-08-19T15:56:25.050Z,1825
2017-08-19T15:57:05.730Z,1890
2017-08-19T15:57:46.599Z,1310
2017-08-19T15:58:27.168Z,1870
2017-08-19T15:59:07.771Z,1845
2017-08-19T15:59:48.352Z,1845
2017-08-19T16:00:28.918Z,1815
2017-08-19T16:01:09.496Z,1810
2017-08-19T16:01:50.100Z,1800
2017-08-19T16:02:30.654Z,1795
2017-08-19T16:05:03.897Z,1810
2017-08-19T16:05:44.490Z,1765
2017-08-19T16:06:25.075Z,1725
2017-08-19T16:07:05.664Z,1655
2017-08-19T16:07:46.255Z,1685
2017-08-19T16:08:26.838Z,1680
2017-08-19T16:09:07.456Z,1690
2017-08-19T16:09:47.986Z,1690
2017-08-19T16:10:28.559Z,1560
2017-08-19T16:11:09.157Z,655
2017-08-19T16:11:49.738Z,1190
2017-08-19T16:12:30.312Z,405
2017-08-19T16:13:10.900Z,320
2017-08-19T16:13:51.491Z,315
2017-08-19T16:14:32.067Z,295
2017-08-19T16:15:13.176Z,340
2017-08-19T16:15:53.766Z,750
2017-08-19T16:16:34.347Z,300
2017-08-19T16:17:14.951Z,275
2017-08-19T16:17:55.527Z,260
2017-08-19T16:18:36.115Z,250
2017-08-19T16:19:16.710Z,240
2017-08-19T16:19:57.297Z,235
2017-08-19T16:20:37.885Z,235
2017-08-19T16:21:18.486Z,230
2017-08-19T16:21:59.058Z,235
2017-08-19T16:22:39.648Z,235
2017-08-19T16:23:20.232Z,280
2017-08-19T16:24:00.817Z,790
2017-08-19T16:24:41.407Z,500
2017-08-19T16:25:21.997Z,275
2017-08-19T16:26:02.584Z,265
2017-08-19T16:26:43.178Z,260
2017-08-19T16:27:23.770Z,255
2017-08-19T16:28:04.343Z,255
2017-08-19T16:28:45.538Z,255
2017-08-19T16:29:26.144Z,245
2017-08-19T16:30:06.726Z,240
2017-08-19T16:30:47.313Z,225
2017-08-19T16:31:27.879Z,210
2017-08-19T16:32:08.455Z,195
2017-08-19T16:32:49.017Z,200
2017-08-19T16:39:47.410Z,180
2017-08-19T16:40:27.859Z,180
2017-08-19T16:41:08.407Z,160
2017-08-19T16:41:49.089Z,145
2017-08-19T16:42:29.663Z,140
2017-08-19T16:43:10.305Z,140
2017-08-19T16:43:50.936Z,150
2017-08-19T16:44:31.470Z,155
2017-08-19T16:45:12.197Z,150
2017-08-19T16:45:52.838Z,165
2017-08-19T16:46:33.613Z,175
2017-08-19T16:47:14.278Z,180
2017-08-19T16:47:55.218Z,190
2017-08-19T16:48:35.865Z,155
2017-08-19T16:49:16.594Z,155
2017-08-19T16:49:57.370Z,185
2017-08-19T16:50:37.930Z,195
2017-08-19T16:51:18.503Z,180
2017-08-19T16:51:59.122Z,165
2017-08-19T16:52:39.786Z,155
2017-08-19T16:53:20.305Z,140
2017-08-19T16:54:01.061Z,145
2017-08-19T16:54:41.657Z,145
2017-08-19T16:55:22.396Z,150
2017-08-19T16:56:03.006Z,155
2017-08-19T16:56:43.945Z,160
2017-08-19T16:57:24.505Z,180
2017-08-19T16:58:05.226Z,185
2017-08-19T16:58:45.938Z,185
2017-08-19T16:59:26.565Z,180
2017-08-19T17:00:07.110Z,170
2017-08-19T17:00:47.678Z,160
2017-08-19T17:01:28.287Z,145
2017-08-19T17:02:09.110Z,125
2017-08-19T17:02:49.697Z,110
2017-08-19T17:03:30.451Z,100
2017-08-19T17:04:10.921Z,90
2017-08-19T17:04:51.639Z,85
2017-08-19T17:05:32.320Z,85
2017-08-19T17:06:12.799Z,80
2017-08-19T17:06:53.384Z,70
2017-08-19T17:07:33.983Z,65
2017-08-19T17:08:14.543Z,65
2017-08-19T17:08:55.123Z,60
2017-08-19T17:09:35.711Z,60
2017-08-19T17:10:16.246Z,55
2017-08-19T17:10:57.013Z,50
2017-08-19T17:11:37.676Z,50
2017-08-19T17:12:18.262Z,40
2017-08-19T17:12:59.926Z,40
2017-08-19T17:13:40.490Z,40
2017-08-19T17:14:21.235Z,35
2017-08-19T17:15:01.772Z,35
2017-08-19T17:15:42.357Z,35
2017-08-19T17:16:22.899Z,35
2017-08-19T17:17:04.200Z,35
2017-08-19T17:17:44.761Z,30
2017-08-19T17:18:25.308Z,30
2017-08-19T17:19:05.926Z,30
2017-08-19T17:19:46.540Z,30
2017-08-19T17:20:27.091Z,30
2017-08-19T17:21:07.670Z,30
2017-08-19T17:21:48.258Z,30
2017-08-19T17:22:28.908Z,30
2017-08-19T17:23:09.506Z,30
2017-08-19T17:23:50.513Z,30
2017-08-19T17:24:31.118Z,30
2017-08-19T17:25:12.042Z,30
2017-08-19T17:25:52.699Z,30
2017-08-19T17:26:33.422Z,30
2017-08-19T17:27:14.189Z,30
2017-08-19T17:27:54.854Z,30
2017-08-19T17:28:35.747Z,25
2017-08-19T17:29:16.542Z,25
2017-08-19T17:29:57.454Z,25
2017-08-19T17:30:38.244Z,25
2017-08-19T17:31:19.126Z,25
2017-08-19T17:32:00.054Z,25
2017-08-19T17:32:40.783Z,25
2017-08-19T17:33:21.457Z,25
2017-08-19T17:34:02.164Z,25
2017-08-19T17:34:42.829Z,25
2017-08-19T17:35:23.607Z,25
2017-08-19T17:36:04.245Z,25
2017-08-19T17:36:45.035Z,25
2017-08-19T17:37:26.108Z,25
2017-08-19T17:38:06.794Z,30
2017-08-19T17:38:47.590Z,30
2017-08-19T17:39:28.164Z,30
2017-08-19T17:40:08.834Z,35
2017-08-19T17:40:49.547Z,35
2017-08-19T17:41:30.099Z,35
2017-08-19T17:42:10.706Z,40
2017-08-19T17:42:51.406Z,40
2017-08-19T17:43:31.991Z,35
2017-08-19T17:44:12.598Z,35
2017-08-19T17:44:53.345Z,35
2017-08-19T17:45:34.230Z,30
2017-08-19T17:46:15.992Z,30
2017-08-19T17:46:56.566Z,30
2017-08-19T17:47:37.303Z,30
2017-08-19T17:48:17.923Z,25
2017-08-19T17:48:58.774Z,25
2017-08-19T17:49:39.364Z,25
2017-08-19T17:50:20.017Z,25
2017-08-19T17:51:00.556Z,25
2017-08-19T17:51:41.156Z,25
2017-08-19T17:52:21.771Z,25
2017-08-19T17:53:02.334Z,25
2017-08-19T17:53:42.894Z,25
2017-08-19T17:54:23.451Z,20
2017-08-19T17:55:04.686Z,20
2017-08-19T17:55:45.889Z,20
2017-08-19T17:56:26.465Z,20
2017-08-19T17:57:07.041Z,20
2017-08-19T17:57:47.629Z,15
2017-08-19T17:58:28.199Z,15
2017-08-19T17:59:08.798Z,15
2017-08-19T17:59:49.366Z,15
2017-08-19T18:00:30.007Z,15
2017-08-19T18:01:11.478Z,15
2017-08-19T18:01:52.701Z,15
2017-08-19T18:02:33.258Z,15
2017-08-19T18:03:13.843Z,10
2017-08-19T18:03:54.449Z,10
2017-08-19T18:04:35.054Z,10
2017-08-19T18:05:15.734Z,10
2017-08-19T18:05:56.390Z,10
2017-08-19T18:06:36.892Z,10
2017-08-19T18:07:17.713Z,10
2017-08-19T18:07:58.304Z,10
2017-08-19T18:08:38.990Z,10
2017-08-19T18:09:19.782Z,5
2017-08-19T18:10:00.361Z,5
2017-08-19T18:10:40.951Z,5
2017-08-19T18:11:21.586Z,5
2017-08-19T18:12:02.173Z,5
2017-08-19T18:12:43.152Z,5
2017-08-19T18:13:23.741Z,5
2017-08-19T18:14:04.385Z,5
2017-08-19T18:14:45.018Z,5
2017-08-19T18:15:25.600Z,5
2017-08-19T18:16:06.252Z,5
2017-08-19T18:16:46.793Z,0
2017-08-19T18:17:27.376Z,0
2017-08-19T18:18:08.034Z,0
2017-08-19T18:18:48.655Z,0
2017-08-19T18:19:29.413Z,0
2017-08-19T18:20:10.000Z,0
2017-08-19T18:20:50.733Z,0
2017-08-19T18:21:31.284Z,0
